createdAt,value
2019-01-12T00:01:03.679Z,17.05
2019-01-12T00:03:33.395Z,16.55
2019-01-12T00:06:03.620Z,16.73
2019-01-12T00:08:33.664Z,16.32
2019-01-12T00:11:03.496Z,15.98
2019-01-12T00:13:33.298Z,16.17
2019-01-12T00:16:03.177Z,15.23
2019-01-12T00:18:33.217Z,15.93
2019-01-12T00:21:03.112Z,15.18
2019-01-12T00:23:32.988Z,14.53
2019-01-12T00:26:02.879Z,14.70
2019-01-12T00:28:32.959Z,14.40
2019-01-12T00:31:02.911Z,13.70
2019-01-12T00:33:32.714Z,13.60
2019-01-12T00:36:03.871Z,14.05
2019-01-12T00:38:33.685Z,12.83
2019-01-12T00:41:03.769Z,12.35
2019-01-12T00:43:34.824Z,12.63
2019-01-12T00:46:05.034Z,12.58
2019-01-12T00:48:34.761Z,13.83
2019-01-12T00:51:04.668Z,13.10
2019-01-12T00:53:34.824Z,13.62
2019-01-12T00:56:05.017Z,14.20
2019-01-12T00:58:34.842Z,13.23
2019-01-12T01:01:05.304Z,13.18
2019-01-12T01:03:35.118Z,13.58
2019-01-12T01:06:05.370Z,13.10
2019-01-12T01:08:35.163Z,14.05
2019-01-12T01:11:05.245Z,14.35
2019-01-12T01:13:35.072Z,14.15
2019-01-12T01:16:05.072Z,14.13
2019-01-12T01:18:34.806Z,14.40
2019-01-12T01:21:04.669Z,15.48
2019-01-12T01:23:34.573Z,15.00
2019-01-12T01:26:04.370Z,15.78
2019-01-12T01:28:34.484Z,17.27
2019-01-12T01:31:04.292Z,17.55
2019-01-12T01:33:34.085Z,17.50
2019-01-12T01:36:03.961Z,16.33
2019-01-12T01:38:33.693Z,15.63
2019-01-12T01:41:03.581Z,15.95
2019-01-12T01:43:33.500Z,15.63
2019-01-12T01:46:03.258Z,14.10
2019-01-12T01:48:33.041Z,14.83
2019-01-12T01:51:03.169Z,13.77
2019-01-12T01:53:33.215Z,13.90
2019-01-12T01:56:03.029Z,14.35
2019-01-12T01:58:33.131Z,14.10
2019-01-12T02:01:03.002Z,14.68
2019-01-12T02:03:32.996Z,14.17
2019-01-12T02:06:02.860Z,14.80
2019-01-12T02:08:32.687Z,14.90
2019-01-12T02:11:02.412Z,14.30
2019-01-12T02:13:32.233Z,14.63
2019-01-12T02:16:02.025Z,14.50
2019-01-12T02:18:32.773Z,14.47
2019-01-12T02:21:02.592Z,14.50
2019-01-12T02:23:32.527Z,15.95
2019-01-12T02:26:02.406Z,15.87
2019-01-12T02:28:32.471Z,16.30
2019-01-12T02:31:02.262Z,16.42
2019-01-12T02:33:32.256Z,16.20
2019-01-12T02:36:02.385Z,16.00
2019-01-12T02:38:32.155Z,16.07
2019-01-12T02:41:02.207Z,16.45
2019-01-12T02:43:32.082Z,17.17
2019-01-12T02:46:01.879Z,16.20
2019-01-12T02:48:31.704Z,16.93
2019-01-12T02:51:02.444Z,16.50
2019-01-12T02:53:32.321Z,16.10
2019-01-12T02:56:02.047Z,16.87
2019-01-12T02:58:31.901Z,17.33
2019-01-12T03:01:01.817Z,17.35
2019-01-12T03:03:31.996Z,17.57
2019-01-12T03:06:01.747Z,18.85
2019-01-12T03:08:31.461Z,20.40
2019-01-12T03:11:01.424Z,21.55
2019-01-12T03:13:31.217Z,20.70
2019-01-12T03:16:01.199Z,20.60
2019-01-12T03:18:30.952Z,21.57
2019-01-12T03:21:00.700Z,22.02
2019-01-12T03:23:31.534Z,21.60
2019-01-12T03:26:01.463Z,22.07
2019-01-12T03:28:31.196Z,22.37
2019-01-12T03:31:01.011Z,21.35
2019-01-12T03:33:30.743Z,23.38
2019-01-12T03:36:00.507Z,22.93
2019-01-12T03:38:30.305Z,22.80
2019-01-12T03:41:00.664Z,21.37
2019-01-12T03:43:31.537Z,21.57
2019-01-12T03:46:01.673Z,22.10
2019-01-12T03:48:31.473Z,21.95
2019-01-12T03:51:01.852Z,21.90
2019-01-12T03:53:31.635Z,22.00
2019-01-12T03:56:01.462Z,21.80
2019-01-12T03:58:31.733Z,23.27
2019-01-12T04:01:01.861Z,23.35
2019-01-12T04:03:31.687Z,21.57
2019-01-12T04:06:01.557Z,21.15
2019-01-12T04:08:31.289Z,20.92
2019-01-12T04:11:01.164Z,22.95
2019-01-12T04:13:30.961Z,21.93
2019-01-12T04:16:00.842Z,22.07
2019-01-12T04:18:30.592Z,22.10
2019-01-12T04:21:00.652Z,23.45
2019-01-12T04:23:30.466Z,24.02
2019-01-12T04:26:00.213Z,23.67
2019-01-12T04:31:05.922Z,22.83
2019-01-12T04:33:35.652Z,21.87
2019-01-12T04:36:05.425Z,22.15
2019-01-12T04:38:35.156Z,21.17
2019-01-12T04:41:05.258Z,21.23
2019-01-12T04:43:35.225Z,20.32
2019-01-12T04:46:05.038Z,21.52
2019-01-12T04:48:34.764Z,21.57
2019-01-12T04:51:04.729Z,21.12
2019-01-12T04:53:35.184Z,21.93
2019-01-12T04:56:05.147Z,21.57
2019-01-12T04:58:34.887Z,21.53
2019-01-12T05:01:04.852Z,21.37
2019-01-12T05:03:35.065Z,20.72
2019-01-12T05:06:04.980Z,20.87
2019-01-12T05:08:35.056Z,19.82
2019-01-12T05:11:05.161Z,19.70
2019-01-12T05:13:36.232Z,18.93
2019-01-12T05:16:06.016Z,19.60
2019-01-12T05:18:35.741Z,20.02
2019-01-12T05:21:05.894Z,18.42
2019-01-12T05:23:35.774Z,19.23
2019-01-12T05:26:05.569Z,18.92
2019-01-12T05:28:35.297Z,20.45
2019-01-12T05:31:05.096Z,19.27
2019-01-12T05:33:34.845Z,20.37
2019-01-12T05:36:04.823Z,19.17
2019-01-12T05:38:34.565Z,19.42
2019-01-12T05:41:04.430Z,19.37
2019-01-12T05:43:34.494Z,19.40
2019-01-12T05:46:04.366Z,20.40
2019-01-12T05:48:34.127Z,20.60
2019-01-12T05:51:04.292Z,21.20
2019-01-12T05:53:34.009Z,21.50
2019-01-12T05:56:03.825Z,21.20
2019-01-12T05:58:33.907Z,22.00
2019-01-12T06:01:03.868Z,21.52
2019-01-12T06:03:33.630Z,21.05
2019-01-12T06:06:03.720Z,20.92
2019-01-12T06:08:33.436Z,21.07
2019-01-12T06:11:03.189Z,21.48
2019-01-12T06:13:33.020Z,21.97
2019-01-12T06:16:02.992Z,20.43
2019-01-12T06:18:32.796Z,20.50
2019-01-12T06:21:02.648Z,20.92
2019-01-12T06:23:32.604Z,19.70
2019-01-12T06:26:04.099Z,19.15
2019-01-12T06:28:34.128Z,18.25
2019-01-12T06:31:04.196Z,19.17
2019-01-12T06:33:33.913Z,18.42
2019-01-12T06:36:03.743Z,16.45
2019-01-12T06:38:33.466Z,16.00
2019-01-12T06:41:03.388Z,15.10
2019-01-12T06:43:33.232Z,13.85
2019-01-12T06:46:03.044Z,13.45
2019-01-12T06:48:32.783Z,13.20
2019-01-12T06:51:02.520Z,13.17
2019-01-12T06:53:32.342Z,13.30
2019-01-12T06:56:02.138Z,13.98
2019-01-12T06:58:32.932Z,14.20
2019-01-12T07:01:02.824Z,14.43
2019-01-12T07:03:32.560Z,15.43
2019-01-12T07:06:02.293Z,16.65
2019-01-12T07:08:32.049Z,16.62
2019-01-12T07:11:01.835Z,16.52
2019-01-12T07:13:31.643Z,16.70
2019-01-12T07:16:01.483Z,15.63
2019-01-12T07:18:31.412Z,15.53
2019-01-12T07:21:01.300Z,16.23
2019-01-12T07:23:31.049Z,16.65
2019-01-12T07:26:00.938Z,17.05
2019-01-12T07:28:30.737Z,16.30
2019-01-12T07:31:00.451Z,17.30
2019-01-12T07:33:30.185Z,17.85
2019-01-12T07:36:01.197Z,18.92
2019-01-12T07:38:31.012Z,19.87
2019-01-12T07:41:00.859Z,19.40
2019-01-12T07:43:30.731Z,19.23
2019-01-12T07:46:00.452Z,20.43
2019-01-12T07:48:30.202Z,21.90
2019-01-12T07:51:00.017Z,20.90
2019-01-12T07:53:29.764Z,22.50
2019-01-12T07:55:59.492Z,22.80
2019-01-12T07:58:29.302Z,23.50
2019-01-12T08:00:59.012Z,24.75
2019-01-12T08:03:28.853Z,25.12
2019-01-12T08:05:58.735Z,24.87
2019-01-12T08:08:28.637Z,24.95
2019-01-12T08:10:58.923Z,25.17
2019-01-12T08:13:28.688Z,26.07
2019-01-12T08:15:58.560Z,25.82
2019-01-12T08:18:28.369Z,26.05
2019-01-12T08:20:58.203Z,26.27
2019-01-12T08:23:28.260Z,25.93
2019-01-12T08:25:58.007Z,26.42
2019-01-12T08:28:27.853Z,26.63
2019-01-12T08:30:57.731Z,27.52
2019-01-12T08:33:27.502Z,27.10
2019-01-12T08:35:57.260Z,25.75
2019-01-12T08:38:27.011Z,27.30
2019-01-12T08:40:56.818Z,26.68
2019-01-12T08:43:26.608Z,26.93
2019-01-12T08:45:56.367Z,27.07
2019-01-12T08:48:26.080Z,27.30
2019-01-12T08:50:55.895Z,26.93
2019-01-12T08:53:25.648Z,28.27
2019-01-12T08:55:55.439Z,27.60
2019-01-12T08:58:25.253Z,27.62
2019-01-12T09:00:55.226Z,27.55
2019-01-12T09:03:24.956Z,26.68
2019-01-12T09:05:54.727Z,26.60
2019-01-12T09:08:24.553Z,27.02
2019-01-12T09:10:54.727Z,26.90
2019-01-12T09:13:24.480Z,26.55
2019-01-12T09:15:54.216Z,26.15
2019-01-12T09:18:23.928Z,27.13
2019-01-12T09:20:53.824Z,27.23
2019-01-12T09:23:23.629Z,26.93
2019-01-12T09:25:53.587Z,27.17
2019-01-12T09:28:23.328Z,28.00
2019-01-12T09:30:53.140Z,24.75
2019-01-12T09:33:22.871Z,26.35
2019-01-12T09:35:52.721Z,26.77
2019-01-12T09:38:22.524Z,26.68
2019-01-12T09:40:55.431Z,27.77
2019-01-12T09:43:25.279Z,26.25
2019-01-12T09:45:55.246Z,26.50
2019-01-12T09:48:24.968Z,27.02
2019-01-12T09:50:54.697Z,26.27
2019-01-12T09:53:24.547Z,27.10
2019-01-12T09:55:54.346Z,27.05
2019-01-12T09:58:24.136Z,26.02
2019-01-12T10:00:53.976Z,25.55
2019-01-12T10:03:23.862Z,26.43
2019-01-12T10:06:13.552Z,26.85
2019-01-12T10:08:43.268Z,29.80
2019-01-12T10:11:13.221Z,26.95
2019-01-12T10:13:43.153Z,26.12
2019-01-12T10:16:12.833Z,27.35
2019-01-12T10:18:42.664Z,26.35
2019-01-12T10:21:12.801Z,25.90
2019-01-12T10:23:42.567Z,25.27
2019-01-12T10:26:12.544Z,24.85
2019-01-12T10:28:42.357Z,25.92
2019-01-12T10:31:12.145Z,24.95
2019-01-12T10:33:42.337Z,25.23
2019-01-12T10:36:12.236Z,24.82
2019-01-12T10:38:42.035Z,24.55
2019-01-12T10:41:11.828Z,23.37
2019-01-12T10:43:41.631Z,25.97
2019-01-12T10:46:11.532Z,24.45
2019-01-12T10:48:41.429Z,24.10
2019-01-12T10:51:11.300Z,23.98
2019-01-12T10:53:41.093Z,24.47
2019-01-12T10:56:10.960Z,25.10
2019-01-12T10:58:40.756Z,23.57
2019-01-12T11:01:10.488Z,24.85
2019-01-12T11:03:40.220Z,24.07
2019-01-12T11:06:10.004Z,24.67
2019-01-12T11:08:39.834Z,23.93
2019-01-12T11:11:09.757Z,24.37
2019-01-12T11:13:40.004Z,23.75
2019-01-12T11:16:10.080Z,24.53
2019-01-12T11:18:39.904Z,24.90
2019-01-12T11:21:09.760Z,24.40
2019-01-12T11:23:39.700Z,26.23
2019-01-12T11:26:09.606Z,24.75
2019-01-12T11:28:39.540Z,25.37
2019-01-12T11:31:09.621Z,25.45
2019-01-12T11:33:39.576Z,24.77
2019-01-12T11:36:09.481Z,24.60
2019-01-12T11:38:39.288Z,24.87
2019-01-12T11:41:10.090Z,25.82
2019-01-12T11:43:40.011Z,26.62
2019-01-12T11:46:10.430Z,26.45
2019-01-12T11:48:40.370Z,27.50
2019-01-12T11:51:14.914Z,25.72
2019-01-12T11:53:44.738Z,25.85
2019-01-12T11:56:14.974Z,26.05
2019-01-12T11:58:45.093Z,25.83
2019-01-12T12:01:15.171Z,25.55
2019-01-12T12:03:44.979Z,25.88
2019-01-12T12:06:14.806Z,25.77
2019-01-12T12:08:44.612Z,25.00
2019-01-12T12:11:14.481Z,25.27
2019-01-12T12:13:44.242Z,25.52
2019-01-12T12:16:14.443Z,25.15
2019-01-12T12:18:44.164Z,24.80
2019-01-12T12:21:13.885Z,24.60
2019-01-12T12:23:43.659Z,25.23
2019-01-12T12:26:13.772Z,24.95
2019-01-12T12:28:43.568Z,24.57
2019-01-12T12:31:13.668Z,24.52
2019-01-12T12:33:43.448Z,24.82
2019-01-12T12:36:13.328Z,23.47
2019-01-12T12:38:43.335Z,22.70
2019-01-12T12:41:13.052Z,22.85
2019-01-12T12:43:42.780Z,22.70
2019-01-12T12:46:12.592Z,21.65
2019-01-12T12:48:42.360Z,20.77
2019-01-12T12:51:12.259Z,22.15
2019-01-12T12:53:41.971Z,20.50
2019-01-12T12:56:11.892Z,20.15
2019-01-12T12:58:41.616Z,19.65
2019-01-12T13:01:11.346Z,18.98
2019-01-12T13:03:41.151Z,20.23
2019-01-12T13:06:10.948Z,19.40
2019-01-12T13:08:41.260Z,19.07
2019-01-12T13:11:11.463Z,18.57
2019-01-12T13:13:42.160Z,19.20
2019-01-12T13:16:11.941Z,17.92
2019-01-12T13:18:42.095Z,18.62
2019-01-12T13:21:11.951Z,18.33
2019-01-12T13:23:41.802Z,18.15
2019-01-12T13:26:11.500Z,19.10
2019-01-12T13:28:42.166Z,18.35
2019-01-12T13:31:12.029Z,23.70
2019-01-12T13:33:42.483Z,23.80
2019-01-12T13:36:12.280Z,16.77
2019-01-12T13:38:42.003Z,16.00
2019-01-12T13:41:11.752Z,16.10
2019-01-12T13:43:41.523Z,15.83
2019-01-12T13:46:11.296Z,15.88
2019-01-12T13:48:47.917Z,15.70
2019-01-12T13:51:17.936Z,15.53
2019-01-12T13:53:47.868Z,14.70
2019-01-12T13:56:17.657Z,14.10
2019-01-12T13:58:47.480Z,14.00
2019-01-12T14:01:17.254Z,14.30
2019-01-12T14:03:47.285Z,13.75
2019-01-12T14:06:17.332Z,13.70
2019-01-12T14:08:47.017Z,13.78
2019-01-12T14:11:17.024Z,13.03
2019-01-12T14:13:46.735Z,13.20
2019-01-12T14:16:16.899Z,12.60
2019-01-12T14:18:46.886Z,11.97
2019-01-12T14:21:16.702Z,11.30
2019-01-12T14:23:46.486Z,11.35
2019-01-12T14:26:16.180Z,10.90
2019-01-12T14:28:45.882Z,10.63
2019-01-12T14:31:15.754Z,11.28
2019-01-12T14:33:45.736Z,11.03
2019-01-12T14:36:15.775Z,10.03
2019-01-12T14:38:45.599Z,10.08
2019-01-12T14:41:15.395Z,9.95
2019-01-12T14:43:45.164Z,9.98
2019-01-12T14:46:14.944Z,9.03
2019-01-12T14:48:44.653Z,8.80
2019-01-12T14:51:14.528Z,9.15
2019-01-12T14:53:45.183Z,8.60
2019-01-12T14:56:14.959Z,8.60
2019-01-12T14:58:44.750Z,7.70
2019-01-12T15:01:14.523Z,7.58
2019-01-12T15:03:44.297Z,7.78
2019-01-12T15:06:14.360Z,7.50
2019-01-12T15:08:44.425Z,7.10
2019-01-12T15:11:14.147Z,7.40
2019-01-12T15:13:43.916Z,7.93
2019-01-12T15:16:14.075Z,8.45
2019-01-12T15:18:43.852Z,8.43
2019-01-12T15:21:15.066Z,8.40
2019-01-12T15:23:45.180Z,8.50
2019-01-12T15:26:15.355Z,8.00
2019-01-12T15:28:45.564Z,7.90
2019-01-12T15:31:15.299Z,8.35
2019-01-12T15:33:45.876Z,7.90
2019-01-12T15:36:16.032Z,7.60
2019-01-12T15:38:46.076Z,7.97
2019-01-12T15:41:15.852Z,7.90
2019-01-12T15:43:45.621Z,7.80
2019-01-12T15:46:15.339Z,8.28
2019-01-12T15:48:45.032Z,8.90
2019-01-12T15:51:15.251Z,8.65
2019-01-12T15:53:45.584Z,9.38
2019-01-12T15:56:15.774Z,9.58
2019-01-12T15:58:45.479Z,9.20
2019-01-12T16:01:15.247Z,9.88
2019-01-12T16:03:45.045Z,10.65
2019-01-12T16:06:15.519Z,10.98
2019-01-12T16:08:45.593Z,9.95
2019-01-12T16:11:15.370Z,10.53
2019-01-12T16:13:45.084Z,10.53
2019-01-12T16:16:14.948Z,12.00
2019-01-12T16:18:44.655Z,11.55
2019-01-12T16:21:14.818Z,11.50
2019-01-12T16:23:44.537Z,11.33
2019-01-12T16:26:14.323Z,11.78
2019-01-12T16:28:44.458Z,11.90
2019-01-12T16:31:14.318Z,12.30
2019-01-12T16:33:44.046Z,12.78
2019-01-12T16:36:13.773Z,13.30
2019-01-12T16:38:43.494Z,13.05
2019-01-12T16:41:13.555Z,13.80
2019-01-12T16:43:43.408Z,13.28
2019-01-12T16:46:13.110Z,13.30
2019-01-12T16:48:43.158Z,13.75
2019-01-12T16:51:13.316Z,14.30
2019-01-12T16:53:43.034Z,14.28
2019-01-12T16:56:13.047Z,13.85
2019-01-12T16:58:42.752Z,14.23
2019-01-12T17:01:12.517Z,16.05
2019-01-12T17:03:42.316Z,15.32
2019-01-12T17:06:12.314Z,18.40
2019-01-12T17:08:42.311Z,20.60
2019-01-12T17:11:12.428Z,21.70
2019-01-12T17:13:42.456Z,25.00
2019-01-12T17:16:12.574Z,28.38
2019-01-12T17:18:42.377Z,26.85
2019-01-12T17:21:12.519Z,22.70
2019-01-12T17:23:42.627Z,19.17
2019-01-12T17:26:12.405Z,16.85
2019-01-12T17:28:42.419Z,15.50
2019-01-12T17:31:12.441Z,16.37
2019-01-12T17:33:42.446Z,17.10
2019-01-12T17:36:12.252Z,16.07
2019-01-12T17:38:41.975Z,16.17
2019-01-12T17:41:11.664Z,15.00
2019-01-12T17:43:42.433Z,16.30
2019-01-12T17:46:12.530Z,16.80
2019-01-12T17:48:42.572Z,17.27
2019-01-12T17:51:12.292Z,17.50
2019-01-12T17:53:42.015Z,18.07
2019-01-12T17:56:11.871Z,17.40
2019-01-12T17:58:44.634Z,16.60
2019-01-12T18:01:13.387Z,18.67
2019-01-12T18:03:43.342Z,16.80
2019-01-12T18:06:13.767Z,15.93
2019-01-12T18:08:43.619Z,16.25
2019-01-12T18:11:13.985Z,16.97
2019-01-12T18:13:43.737Z,19.90
2019-01-12T18:16:13.841Z,19.87
2019-01-12T18:18:43.890Z,20.00
2019-01-12T18:21:13.687Z,19.62
2019-01-12T18:23:43.471Z,20.07
2019-01-12T18:26:13.560Z,17.50
2019-01-12T18:28:43.271Z,19.67
2019-01-12T18:31:13.363Z,15.85
2019-01-12T18:33:43.079Z,19.20
2019-01-12T18:36:13.128Z,12.53
2019-01-12T18:38:42.818Z,11.43
2019-01-12T18:41:12.749Z,10.90
2019-01-12T18:43:42.532Z,10.23
2019-01-12T18:46:12.752Z,9.50
2019-01-12T18:48:43.017Z,9.18
2019-01-12T18:51:12.712Z,8.60
2019-01-12T18:53:42.486Z,8.68
2019-01-12T18:56:12.660Z,8.58
2019-01-12T18:58:42.443Z,9.40
2019-01-12T19:01:12.555Z,9.60
2019-01-12T19:03:42.703Z,10.28
2019-01-12T19:06:12.426Z,13.53
2019-01-12T19:08:42.164Z,14.40
2019-01-12T19:11:11.943Z,12.33
2019-01-12T19:13:42.014Z,11.60
2019-01-12T19:16:11.812Z,9.23
2019-01-12T19:18:42.494Z,8.90
2019-01-12T19:21:12.352Z,9.18
2019-01-12T19:23:42.411Z,8.30
2019-01-12T19:26:12.184Z,8.73
2019-01-12T19:28:41.977Z,8.50
2019-01-12T19:31:11.767Z,8.60
2019-01-12T19:33:41.560Z,9.60
2019-01-12T19:36:11.575Z,10.10
2019-01-12T19:38:41.297Z,10.30
2019-01-12T19:41:10.988Z,10.75
2019-01-12T19:43:40.713Z,11.40
2019-01-12T19:46:10.536Z,11.30
2019-01-12T19:48:40.566Z,12.50
2019-01-12T19:51:10.566Z,13.70
2019-01-12T19:53:40.344Z,13.95
2019-01-12T19:56:10.501Z,12.70
2019-01-12T19:58:40.342Z,12.10
2019-01-12T20:01:10.863Z,12.25
2019-01-12T20:03:40.613Z,11.43
2019-01-12T20:06:16.901Z,11.12
2019-01-12T20:08:41.930Z,11.15
2019-01-12T20:11:12.091Z,11.50
2019-01-12T20:13:41.879Z,12.20
2019-01-12T20:16:12.676Z,11.90
2019-01-12T20:18:43.618Z,13.00
2019-01-12T20:21:13.400Z,12.37
2019-01-12T20:23:43.475Z,12.40
2019-01-12T20:26:13.647Z,11.33
2019-01-12T20:28:43.387Z,12.25
2019-01-12T20:31:35.467Z,13.13
2019-01-12T20:34:30.501Z,14.45
2019-01-12T20:37:36.215Z,15.20
2019-01-12T20:40:19.244Z,15.23
2019-01-12T20:43:36.188Z,16.48
2019-01-12T20:46:28.006Z,15.35
2019-01-12T20:49:38.939Z,13.30
2019-01-12T20:52:52.661Z,12.60
2019-01-12T20:56:09.357Z,12.63
2019-01-12T20:59:14.683Z,12.63
2019-01-12T21:02:20.520Z,11.88
2019-01-12T21:05:41.183Z,13.25
2019-01-12T21:08:17.379Z,13.88
2019-01-12T21:11:31.212Z,15.35
2019-01-12T21:14:22.659Z,17.10
2019-01-12T21:16:57.284Z,19.45
2019-01-12T21:19:27.120Z,20.27
2019-01-12T21:21:57.052Z,20.45
2019-01-12T21:24:27.640Z,19.55
2019-01-12T21:26:57.529Z,19.52
2019-01-12T21:29:35.312Z,15.88
2019-01-12T21:32:06.022Z,17.03
2019-01-12T21:34:35.759Z,13.83
2019-01-12T21:37:05.853Z,13.48
2019-01-12T21:39:35.616Z,11.85
2019-01-12T21:42:05.960Z,11.27
2019-01-12T21:44:35.815Z,11.30
2019-01-12T21:47:05.630Z,12.75
2019-01-12T21:49:35.446Z,13.22
2019-01-12T21:52:05.371Z,12.70
2019-01-12T21:54:35.069Z,14.10
2019-01-12T21:57:04.936Z,14.53
2019-01-12T21:59:34.715Z,15.53
2019-01-12T22:02:04.737Z,18.55
2019-01-12T22:04:34.643Z,23.92
2019-01-12T22:07:04.523Z,25.12
2019-01-12T22:09:34.285Z,28.12
2019-01-12T22:12:04.591Z,26.55
2019-01-12T22:14:34.725Z,23.25
2019-01-12T22:17:04.615Z,15.50
2019-01-12T22:19:34.388Z,13.53
2019-01-12T22:22:04.211Z,13.63
2019-01-12T22:24:34.033Z,13.22
2019-01-12T22:27:03.927Z,13.50
2019-01-12T22:29:34.096Z,16.37
2019-01-12T22:32:04.256Z,16.23
2019-01-12T22:34:34.306Z,14.87
2019-01-12T22:37:04.117Z,15.00
2019-01-12T22:39:35.026Z,15.93
2019-01-12T22:42:06.977Z,16.35
2019-01-12T22:44:38.288Z,17.10
2019-01-12T22:47:09.446Z,18.27
2019-01-12T22:49:39.382Z,16.35
2019-01-12T22:52:09.150Z,15.90
2019-01-12T22:54:38.950Z,16.85
2019-01-12T22:57:08.721Z,14.50
2019-01-12T22:59:38.545Z,14.58
2019-01-12T23:02:09.102Z,13.00
2019-01-12T23:04:39.208Z,13.53
2019-01-12T23:07:11.535Z,12.58
2019-01-12T23:09:40.717Z,12.37
2019-01-12T23:12:11.025Z,12.30
2019-01-12T23:14:40.865Z,12.33
2019-01-12T23:17:10.816Z,12.93
2019-01-12T23:19:40.704Z,13.25
2019-01-12T23:22:10.626Z,13.22
2019-01-12T23:24:40.750Z,13.32
2019-01-12T23:27:10.561Z,13.55
2019-01-12T23:29:40.441Z,14.90
2019-01-12T23:32:10.282Z,14.70
2019-01-12T23:34:40.048Z,14.28
2019-01-12T23:37:09.928Z,14.40
2019-01-12T23:39:39.689Z,15.98
2019-01-12T23:42:09.615Z,15.30
2019-01-12T23:44:39.419Z,16.35
2019-01-12T23:47:09.267Z,16.37
2019-01-12T23:49:39.035Z,21.12
2019-01-12T23:52:08.863Z,21.20
2019-01-12T23:54:38.707Z,21.82
2019-01-12T23:57:08.544Z,26.23
2019-01-12T23:59:38.271Z,23.23
